Latest Weather Observations for Edinburgh

IDS60901

Issued at 11:51 am CDT Friday 18 October 2019 (issued every 10 minutes, with the page automatically refreshed every 10 minutes)

About weather observations | Map of Adelaide area stations | Latest observations for Adelaide area | Other Formats
Station Details ID: 023083 Name: EDINBURGH RAAF Lat: -34.71 Lon: 138.62 Height: 16.54 m
Data from the previous 72 hours. | See also: Recent months at Edinburgh
Date/Time
CDT
Temp
°C
App
Temp
°C
Dew
Point
°C
Rel
Hum
%
Delta-T
°C
Wind Press
QNH
hPa
Press
MSL
hPa
Rain since
9am
mm
Dir  Spd
km/h
Gust
km/h
Spd
kts
Gust
kts
18/11:30am 17.2 11.1 6.7 50 5.2 WNW 28 37 15 20 1017.9 1017.8 0.0
18/11:00am 16.9 10.2 5.8 48 5.4 WNW 30 43 16 23 1018.3 1018.2 0.0
18/10:30am 16.4 10.6 7.9 57 4.3 WNW 28 37 15 20 1018.3 1018.2 0.0
18/10:00am 15.9 11.4 7.1 56 4.3 WNW 20 30 11 16 1017.9 1017.8 0.0
18/09:30am 14.1 9.9 5.5 56 4.0 NNW 17 24 9 13 1018.4 1018.3 0.0
18/09:00am 11.6 7.4 3.6 58 3.5 N 15 19 8 10 1018.5 1018.4 0.0
18/08:30am 10.5 6.5 2.8 59 3.3 N 13 17 7 9 1018.2 1018.1 0.0
18/08:00am 10.1 6.2 3.4 63 2.9 N 13 17 7 9 1018.3 1018.2 0.0
18/07:30am 8.7 5.3 3.9 72 2.1 NNE 11 15 6 8 1018.0 1017.9 0.0
18/07:00am 7.0 3.5 3.6 79 1.4 NNE 11 15 6 8 1017.6 1017.5 0.0
18/06:30am 6.3 2.4 3.3 81 1.3 NE 13 15 7 8 1017.2 1017.1 0.0
18/06:00am 5.9 2.7 2.9 81 1.2 NE 9 11 5 6 1017.1 1017.0 0.0
18/05:30am 6.4 2.8 3.2 80 1.3 NE 11 13 6 7 1017.1 1017.0 0.0
18/05:00am 6.5 2.9 2.9 78 1.5 NE 11 15 6 8 1017.2 1017.1 0.0
18/04:30am 6.5 3.0 3.7 82 1.2 NE 11 13 6 7 1016.9 1016.8 0.0
18/04:00am 5.9 2.4 3.4 84 1.0 NE 11 15 6 8 1017.1 1017.0 0.0
18/03:30am 6.3 2.4 3.5 82 1.2 NE 13 15 7 8 1017.4 1017.3 0.0
18/03:00am 6.4 3.3 3.7 83 1.1 NE 9 13 5 7 1017.8 1017.7 0.0
18/02:30am 6.6 3.2 3.8 82 1.2 NE 11 13 6 7 1018.3 1018.2 0.0
18/02:00am 6.7 3.7 4.0 83 1.2 NE 9 9 5 5 1018.9 1018.8 0.0
18/01:30am 7.4 4.5 4.5 82 1.3 NE 9 11 5 6 1019.1 1019.0 0.0
18/01:00am 6.9 4.4 3.7 80 1.4 NE 6 7 3 4 1019.5 1019.4 0.0
18/12:30am 8.4 5.9 4.6 77 1.7 NE 7 11 4 6 1019.3 1019.2 0.0
18/12:00am 8.4 5.9 4.6 77 1.7 NE 7 11 4 6 1019.4 1019.3 0.0
 
Date/Time
CDT
Temp
°C
App
Temp
°C
Dew
Point
°C
Rel
Hum
%
Delta-T
°C
Wind Press
QNH
hPa
Press
MSL
hPa
Rain since
9am
mm
Dir  Spd
km/h
Gust
km/h
Spd
kts
Gust
kts
17/11:30pm 8.2 5.7 4.6 78 1.6 NE 7 9 4 5 1019.4 1019.3 0.0
17/11:00pm 9.0 7.3 4.2 72 2.1 NE 2 9 1 5 1019.1 1019.0 0.0
17/10:30pm 10.3 9.2 5.3 71 2.3 CALM 0 0 0 0 1019.2 1019.1 0.0
17/10:00pm 10.5 8.3 5.3 70 2.4 NE 6 6 3 3 1019.4 1019.3 0.0
17/09:30pm 9.7 7.4 4.9 72 2.1 NNW 6 7 3 4 1019.1 1019.0 0.0
17/09:00pm 11.0 9.1 5.1 67 2.7 NW 4 6 2 3 1018.9 1018.8 0.0
17/08:30pm 11.8 9.5 4.8 62 3.2 SW 6 6 3 3 1018.8 1018.7 0.0
17/08:00pm 12.3 10.0 4.8 60 3.4 SW 6 7 3 4 1018.9 1018.8 0.0
17/07:30pm 13.3 10.8 5.0 57 3.8 SSW 7 9 4 5 1019.0 1018.9 0.0
17/07:00pm 14.7 11.8 4.7 51 4.7 WSW 9 13 5 7 1019.1 1019.0 0.0
17/06:30pm 15.5 11.8 4.6 48 5.1 WSW 13 17 7 9 1019.3 1019.2 0.0
17/06:00pm 15.4 10.9 4.2 47 5.2 SW 17 24 9 13 1019.2 1019.1 0.0
17/05:30pm 16.5 12.5 4.9 46 5.5 W 15 22 8 12 1019.1 1019.0 0.0
17/05:00pm 16.8 13.2 4.8 45 5.7 SW 13 22 7 12 1018.9 1018.8 0.0
17/04:30pm 16.3 12.3 4.7 46 5.5 SW 15 28 8 15 1018.9 1018.8 0.0
17/04:00pm 16.5 11.7 4.5 45 5.6 WSW 19 26 10 14 1019.0 1018.9 0.0
17/03:30pm 16.8 12.4 4.8 45 5.7 WSW 17 28 9 15 1018.8 1018.7 0.0
17/03:00pm 16.5 11.2 3.2 41 6.1 WSW 20 37 11 20 1019.1 1019.0 0.0
17/02:30pm 16.6 11.4 2.6 39 6.3 SW 19 28 10 15 1019.3 1019.2 0.0
17/02:00pm 16.0 10.2 2.4 40 6.1 SW 22 33 12 18 1019.7 1019.6 0.0
17/01:30pm 16.2 10.3 1.9 38 6.3 WSW 22 35 12 19 1019.9 1019.8 0.0
17/01:00pm 16.7 10.1 2.3 38 6.5 SW 26 35 14 19 1020.0 1019.9 0.0
17/12:30pm 16.7 10.7 3.4 41 6.1 WSW 24 37 13 20 1020.1 1020.0 0.0
17/12:00pm 14.7 7.8 2.6 44 5.4 SW 28 39 15 21 1020.2 1020.1 0.0
17/11:30am 14.9 8.3 1.8 41 5.7 SW 26 39 14 21 1020.0 1019.9 0.0
17/11:00am 14.9 7.1 3.1 45 5.3 SW 33 43 18 23 1019.9 1019.8 0.0
17/10:30am 15.4 8.3 3.5 45 5.4 SW 30 43 16 23 1020.0 1019.9 0.0
17/10:00am 14.7 6.7 0.5 38 6.0 SW 32 48 17 26 1019.7 1019.6 0.0
17/09:30am 14.5 6.5 3.9 49 4.8 SW 35 44 19 24 1019.5 1019.4 0.0
17/09:00am 13.3 5.3 3.7 52 4.3 SW 35 44 19 24 1019.0 1018.9 0.8
17/08:30am 13.9 5.7 4.5 53 4.3 SW 37 48 20 26 1018.3 1018.2 0.8
17/08:00am 13.2 5.6 4.1 54 4.1 SW 33 44 18 24 1018.0 1017.9 0.8
17/07:30am 12.0 3.0 2.5 52 4.1 WSW 39 48 21 26 1017.6 1017.5 0.8
17/07:00am 11.9 5.8 4.6 61 3.3 SW 26 39 14 21 1017.6 1017.5 0.8
17/06:30am 11.1 4.5 4.1 62 3.1 SW 28 39 15 21 1017.2 1017.1 0.8
17/06:00am 11.3 4.7 4.1 61 3.2 SW 28 37 15 20 1016.9 1016.8 0.8
17/05:30am 10.8 5.1 4.7 66 2.7 SW 24 32 13 17 1016.6 1016.5 0.8
17/05:00am 11.3 5.5 4.3 62 3.1 SW 24 33 13 18 1016.4 1016.3 0.8
17/04:30am 11.6 4.6 4.3 61 3.3 SW 30 44 16 24 1016.3 1016.2 0.8
17/04:00am 11.7 4.4 4.7 62 3.2 SW 32 48 17 26 1016.3 1016.2 0.8
17/03:56am 11.9 5.4 4.9 62 3.2 WSW 28 48 15 26 1016.2 1016.1 0.8
17/03:30am 11.7 4.9 5.3 65 2.9 WSW 30 41 16 22 1016.3 1016.2 0.8
17/03:00am 11.8 5.0 5.2 64 3.0 W 30 35 16 19 1016.3 1016.2 0.8
17/02:30am 11.7 4.9 5.3 65 2.9 W 30 39 16 21 1016.2 1016.1 0.8
17/02:00am 12.0 5.6 5.4 64 3.1 WSW 28 44 15 24 1016.3 1016.2 0.8
17/01:30am 12.1 4.7 4.8 61 3.3 WSW 33 43 18 23 1016.6 1016.5 0.8
17/01:00am 11.9 4.6 4.4 60 3.4 WSW 32 46 17 25 1016.7 1016.6 0.8
17/12:30am 12.6 3.9 4.1 56 3.8 W 39 52 21 28 1016.5 1016.4 0.8
17/12:00am 12.1 5.2 4.6 60 3.4 WSW 30 41 16 22 1016.6 1016.5 0.8
 
Date/Time
CDT
Temp
°C
App
Temp
°C
Dew
Point
°C
Rel
Hum
%
Delta-T
°C
Wind Press
QNH
hPa
Press
MSL
hPa
Rain since
9am
mm
Dir  Spd
km/h
Gust
km/h
Spd
kts
Gust
kts
16/11:30pm 12.4 4.6 4.9 60 3.4 WSW 35 41 19 22 1016.4 1016.3 0.8
16/11:00pm 12.8 5.8 6.2 64 3.1 WSW 32 44 17 24 1016.2 1016.1 0.8
16/10:30pm 12.9 6.0 6.3 64 3.1 WSW 32 41 17 22 1016.2 1016.1 0.8
16/10:00pm 12.6 5.6 6.2 65 3.0 WSW 32 41 17 22 1016.1 1016.0 0.8
16/09:34pm 12.6 6.0 6.2 65 3.0 WSW 30 48 16 26 1015.9 1015.8 0.8
16/09:30pm 12.6 5.1 6.2 65 3.0 WSW 35 48 19 26 1016.0 1015.9 0.8
16/09:00pm 13.1 6.1 8.6 74 2.2 WSW 35 43 19 23 1015.7 1015.6 0.8
16/08:30pm 12.4 8.4 9.2 81 1.6 WSW 20 30 11 16 1015.4 1015.3 0.8
16/08:25pm 12.2 8.2 9.2 82 1.5 WSW 20 28 11 15 1015.4 1015.3 0.8
16/08:00pm 12.5 4.6 9.5 82 1.5 WSW 41 56 22 30 1015.2 1015.1 0.4
16/07:52pm 12.4 4.2 9.6 83 1.4 W 43 76 23 41 1015.0 1014.9 0.4
16/07:50pm 12.7 5.1 10.4 86 1.2 W 41 76 22 41 1015.0 1014.9 0.4
16/07:45pm 13.1 6.3 9.4 78 1.9 WSW 35 76 19 41 1014.8 1014.7 0.2
16/07:44pm 13.8 7.6 9.5 75 2.2 WSW 32 76 17 41 1014.7 1014.6 0.2
16/07:43pm 14.5 8.6 9.1 70 2.8 WSW 30 48 16 26 1014.7 1014.6 0.2
16/07:30pm 14.1 8.5 8.9 71 2.6 WSW 28 37 15 20 1014.5 1014.4 0.2
16/07:00pm 13.7 5.5 9.6 76 2.1 WSW 43 54 23 29 1014.5 1014.4 0.2
16/06:49pm 15.7 9.1 8.4 62 3.7 W 33 61 18 33 1014.2 1014.1 0.2
16/06:30pm 16.2 10.0 6.1 51 4.9 W 28 33 15 18 1014.0 1013.9 0.2
16/06:00pm 17.3 12.2 5.9 47 5.6 WSW 22 39 12 21 1013.8 1013.7 0.2
16/05:30pm 16.5 12.2 8.0 57 4.3 WSW 20 33 11 18 1013.9 1013.8 0.2
16/05:00pm 17.3 12.7 8.2 55 4.6 SW 22 28 12 15 1013.6 1013.5 0.2
16/04:30pm 17.0 11.5 7.4 53 4.8 WSW 26 37 14 20 1013.3 1013.2 0.2
16/04:00pm 17.6 11.5 6.5 48 5.5 SW 28 37 15 20 1013.1 1013.0 0.2
16/03:30pm 17.7 10.7 3.9 40 6.5 SW 30 37 16 20 1013.1 1013.0 0.2
16/03:00pm 17.5 10.4 5.4 45 5.8 SW 32 41 17 22 1013.2 1013.1 0.2
16/02:30pm 17.5 11.3 6.1 47 5.6 SW 28 43 15 23 1013.2 1013.1 0.2
16/02:00pm 17.8 11.6 6.3 47 5.7 WSW 28 37 15 20 1013.6 1013.5 0.2
16/01:30pm 17.2 12.1 7.5 53 4.9 SW 24 33 13 18 1013.8 1013.7 0.2
16/01:00pm 17.4 11.7 6.9 50 5.2 SW 26 33 14 18 1013.9 1013.8 0.2
16/12:30pm 16.1 11.0 9.1 63 3.6 SW 26 35 14 19 1013.9 1013.8 0.2
16/12:00pm 16.7 12.9 11.2 70 3.0 SW 22 28 12 15 1014.0 1013.9 0.2
16/11:30am 15.0 10.3 10.8 76 2.2 SW 26 33 14 18 1014.1 1014.0 0.2
16/11:29am 15.1 11.0 11.3 78 2.0 SW 24 33 13 18 1014.1 1014.0 0.2
16/11:04am 14.8 12.5 11.8 82 1.6 SW 15 24 8 13 1014.1 1014.0 0.2
16/11:00am 14.8 12.6 12.1 84 1.5 SW 15 20 8 11 1014.1 1014.0 0.2
16/10:44am 13.9 11.6 11.9 88 1.1 SW 15 19 8 10 1014.2 1014.1 0.2
16/10:30am 13.6 10.9 11.7 88 1.0 SSW 17 22 9 12 1014.2 1014.1 0.2
16/10:00am 14.5 12.0 12.4 87 1.1 WSW 17 24 9 13 1014.2 1014.1 0.0
16/09:30am 13.7 11.1 11.9 89 1.0 WSW 17 22 9 12 1014.2 1014.1 0.0
16/09:00am 13.6 10.9 11.8 89 1.0 WSW 17 22 9 12 1014.2 1014.1 3.4
16/08:45am 13.4 11.9 11.8 90 0.9 WSW 11 15 6 8 1014.3 1014.2 3.4
16/08:30am 13.3 11.8 11.9 91 0.7 W 11 15 6 8 1014.3 1014.2 3.4
16/08:00am 13.1 12.2 11.5 90 0.8 WNW 7 9 4 5 1014.2 1014.1 3.4
16/07:30am 13.1 13.6 11.5 90 0.8 CALM 0 0 0 0 1013.7 1013.6 3.4
16/07:21am 12.9 13.3 11.3 90 0.8 CALM 0 0 0 0 1013.6 1013.5 3.4
16/07:20am 12.9 13.3 11.3 90 0.8 CALM 0 0 0 0 1013.6 1013.5 3.4
16/07:00am 12.9 13.3 11.3 90 0.8 CALM 0 4 0 2 1013.5 1013.4 3.2
16/06:40am 12.9 12.2 11.3 90 0.8 SSE 6 7 3 4 1013.1 1013.0 2.4
16/06:30am 12.9 12.2 11.3 90 0.8 SSE 6 9 3 5 1012.9 1012.8 2.4
16/06:20am 12.9 12.1 11.1 89 0.9 SSE 6 9 3 5 1012.9 1012.8 2.4
16/06:07am 13.1 11.8 11.2 88 1.0 SSW 9 13 5 7 1012.9 1012.8 1.6
16/06:00am 13.3 11.6 11.2 87 1.1 SSW 11 13 6 7 1012.8 1012.7 0.8
16/05:30am 13.6 12.5 10.8 83 1.5 SSE 7 9 4 5 1012.5 1012.4 0.2
16/05:00am 14.0 12.8 10.4 79 1.9 SSW 7 9 4 5 1012.5 1012.4 0.0
16/04:30am 14.3 12.7 10.1 76 2.2 S 9 13 5 7 1012.0 1011.9 0.0
16/04:00am 14.2 12.6 10.2 77 2.1 S 9 11 5 6 1012.5 1012.4 0.0
16/03:30am 13.3 11.8 10.7 84 1.4 SSW 9 13 5 7 1012.4 1012.3 0.0
16/03:00am 12.2 11.1 9.9 86 1.2 NW 6 7 3 4 1011.8 1011.7 0.0
16/02:30am 12.0 12.0 9.9 87 1.1 CALM 0 6 0 3 1011.8 1011.7 0.0
16/02:00am 12.7 12.5 10.4 86 1.2 E 2 6 1 3 1011.9 1011.8 0.0
16/01:30am 13.5 13.1 9.9 79 1.9 ESE 2 7 1 4 1012.5 1012.4 0.0
16/01:00am 14.2 13.9 10.2 77 2.1 NE 2 6 1 3 1013.1 1013.0 0.0
16/12:30am 14.4 13.3 10.0 75 2.3 ENE 6 9 3 5 1013.5 1013.4 0.0
16/12:00am 15.1 14.0 10.1 72 2.6 ESE 6 9 3 5 1013.8 1013.7 0.0
 
Date/Time
CDT
Temp
°C
App
Temp
°C
Dew
Point
°C
Rel
Hum
%
Delta-T
°C
Wind Press
QNH
hPa
Press
MSL
hPa
Rain since
9am
mm
Dir  Spd
km/h
Gust
km/h
Spd
kts
Gust
kts
15/11:30pm 15.0 13.8 10.2 73 2.5 SSE 7 9 4 5 1014.0 1013.9 0.0
15/11:00pm 15.0 13.8 10.2 73 2.5 S 7 11 4 6 1014.1 1014.0 0.0
15/10:30pm 15.0 13.4 10.2 73 2.5 SSW 9 15 5 8 1015.0 1014.9 0.0
15/10:00pm 15.1 13.1 10.3 73 2.5 SSE 11 15 6 8 1014.8 1014.7 0.0
15/09:30pm 15.1 13.8 10.1 72 2.6 SSW 7 11 4 6 1015.5 1015.4 0.0
15/09:00pm 15.2 12.9 9.1 67 3.1 S 11 15 6 8 1014.9 1014.8 0.0
15/08:30pm 15.0 13.3 10.0 72 2.6 W 9 11 5 6 1015.2 1015.1 0.0
15/08:00pm 15.7 13.6 8.2 61 3.8 WNW 9 50 5 27 1015.0 1014.9 0.0
15/07:30pm 16.3 13.6 7.5 56 4.4 W 11 17 6 9 1014.8 1014.7 0.0
15/07:00pm 16.5 11.9 6.3 51 5.0 SW 20 26 11 14 1013.9 1013.8 0.0
15/06:30pm 16.9 13.7 9.8 63 3.7 SSW 17 20 9 11 1013.3 1013.2 0.0
15/06:00pm 17.1 13.7 9.3 60 4.1 SSW 17 20 9 11 1013.3 1013.2 0.0
15/05:30pm 17.4 14.1 8.0 54 4.8 SW 15 19 8 10 1014.4 1014.3 0.0
15/05:00pm 17.1 14.6 8.0 55 4.6 SSW 11 13 6 7 1013.4 1013.3 0.0
15/04:30pm 17.1 14.6 8.3 56 4.5 SW 11 17 6 9 1014.1 1014.0 0.0
15/04:00pm 16.7 13.4 8.1 57 4.4 SSW 15 19 8 10 1014.0 1013.9 0.0
15/03:30pm 16.6 12.7 8.6 59 4.1 SSW 19 24 10 13 1013.9 1013.8 0.0
15/03:00pm 15.9 11.7 9.8 67 3.2 SW 22 30 12 16 1014.9 1014.8 0.0
15/02:30pm 16.6 11.7 8.3 58 4.2 SW 24 32 13 17 1014.3 1014.2 0.0
15/02:00pm 17.6 13.7 8.7 56 4.6 SW 19 24 10 13 1014.4 1014.3 0.0
15/01:30pm 19.9 16.1 4.0 35 7.6 SSW 13 26 7 14 1014.5 1014.4 0.0
15/01:00pm 20.5 17.2 2.3 30 8.5 WSW 9 17 5 9 1014.2 1014.1 0.0
15/12:30pm 20.1 17.6 5.0 37 7.4 SSE 7 11 4 6 1014.5 1014.4 0.0
15/12:00pm 19.1 16.9 6.2 43 6.4 N 7 11 4 6 1015.5 1015.4 0.0

Latest Capital City Observations: Canberra | Sydney | Melbourne | Brisbane | Adelaide | Perth | Hobart | Darwin

Other formats

Comma delimited format used in spreadsheet applications
http://www.bom.gov.au/fwo/IDS60901/IDS60901.95676.axf

JavaScript Object Notation format (JSON) in row-major order
http://www.bom.gov.au/fwo/IDS60901/IDS60901.95676.json

Data quality

Most of these data are generated automatically and are frequently updated. Quality checks on data are not normally performed. It is possible for incorrect values to appear. Refer to information at About Latest Weather Observations and please check the disclaimer before using these data.